Stations météo

réclame
Mon MeteoGroup
Alto De Los Leones, Espagne (8217): Température de l'air & dewpoint: 15.01.2019 17:00:00 - 21.01.2019 17:00:00 (CET)Alto De Los Leones, Espagne (8217): Vitesse du vent: 15.01.2019 17:00:00 - 21.01.2019 17:00:00 (CET)Alto De Los Leones, Espagne (8217): Quantités de précipitations: 15.01.2019 17:00:00 - 21.01.2019 17:00:00 (CET)
Date & Time tt [°C] td [°C] ff [km/h] ff [knt] rr [mm]
21.01.2019 17:00:00 - - - - -
21.01.2019 16:00:00 -2,2 -4,8 0 0 0,0
21.01.2019 15:00:00 -1,6 -4,2 0 0 0,0
21.01.2019 14:00:00 -1,8 -4,5 0 0 0,0
21.01.2019 13:00:00 -2,0 -4,5 0 0 -
21.01.2019 12:00:00 -2,2 -4,8 0 0 0,0
21.01.2019 11:00:00 -2,8 -5,4 0 0 0,0
21.01.2019 10:00:00 -3,4 -5,7 0 0 0,0
21.01.2019 09:00:00 -3,1 -5,7 0 0 0,0
21.01.2019 08:00:00 -3,0 -5,4 0 0 0,0
21.01.2019 07:00:00 -2,7 -5,1 0 0 -
21.01.2019 06:00:00 -2,6 -5,1 0 0 0,0
21.01.2019 05:00:00 -2,5 -4,8 0 0 0,0
21.01.2019 04:00:00 -2,4 -4,8 0 0 0,0
21.01.2019 03:00:00 -2,2 -4,5 0 0 0,0
21.01.2019 02:00:00 -2,1 -4,5 0 0 0,0
21.01.2019 01:00:00 -2,0 -4,5 0 0 -
21.01.2019 00:00:00 -1,8 -4,2 0 0 0,0
20.01.2019 23:00:00 -1,6 -3,9 0 0 0,0
20.01.2019 22:00:00 -1,5 -3,9 0 0 0,0
20.01.2019 21:00:00 -1,3 -3,6 0 0 0,0
20.01.2019 20:00:00 -1,1 -3,6 0 0 0,1
20.01.2019 19:00:00 -1,0 -3,3 0 0 -
20.01.2019 18:00:00 -1,1 -3,6 0 0 0,0
20.01.2019 17:00:00 -0,9 -3,3 0 0 0,0
20.01.2019 16:00:00 -0,9 -3,3 0 0 0,0
20.01.2019 15:00:00 -1,3 -3,6 0 0 0,0
20.01.2019 14:00:00 -1,6 -3,9 0 0 0,0
20.01.2019 13:00:00 -1,7 -4,2 0 0 -
20.01.2019 12:00:00 -1,7 -4,2 0 0 0,0
20.01.2019 11:00:00 -2,1 -4,5 0 0 0,0
20.01.2019 10:00:00 -2,0 -4,5 0 0 0,0
20.01.2019 09:00:00 -1,6 -3,9 0 0 0,0
20.01.2019 08:00:00 -1,7 -4,2 0 0 0,0
20.01.2019 07:00:00 -1,2 -3,6 0 0 -
20.01.2019 06:00:00 -1,0 -3,3 23 13 0,1
20.01.2019 05:00:00 -1,3 -3,6 35 19 0,1
20.01.2019 04:00:00 -1,0 -3,3 39 21 0,5
20.01.2019 03:00:00 -0,6 -3,0 40 22 1,1
20.01.2019 02:00:00 2,1 -0,3 35 19 2,0
20.01.2019 01:00:00 2,2 -0,5 26 14 -
20.01.2019 00:00:00 2,4 -0,7 22 12 0,0
19.01.2019 23:00:00 2,5 -0,5 28 15 0,4
19.01.2019 22:00:00 1,5 -1,0 20 11 0,3
19.01.2019 21:00:00 1,8 -0,7 27 15 0,1
19.01.2019 20:00:00 1,7 -0,7 19 11 0,7
19.01.2019 19:00:00 -0,9 -3,3 0 0 -
19.01.2019 18:00:00 -1,6 -3,9 0 0 1,2
19.01.2019 17:00:00 -1,9 -4,2 0 0 1,3
19.01.2019 16:00:00 -2,1 -4,5 0 0 1,2
19.01.2019 15:00:00 -2,0 -4,5 0 0 1,4
19.01.2019 14:00:00 -1,7 -4,2 0 0 0,3
19.01.2019 13:00:00 -0,6 -3,0 0 0 -
19.01.2019 12:00:00 -0,6 -3,0 0 0 0,2
19.01.2019 11:00:00 -0,7 -3,0 0 0 0,0
19.01.2019 10:00:00 -1,2 -3,6 0 0 0,0
19.01.2019 09:00:00 -2,4 -5,1 0 0 0,0
19.01.2019 08:00:00 -3,1 -5,7 0 0 0,0
19.01.2019 07:00:00 -3,1 -5,7 0 0 -
19.01.2019 06:00:00 -3,2 -5,7 0 0 0,0
19.01.2019 05:00:00 -2,9 -5,4 0 0 0,0
19.01.2019 04:00:00 -3,0 -5,7 0 0 0,0
19.01.2019 03:00:00 -2,9 -5,4 0 0 0,0
19.01.2019 02:00:00 -2,9 -5,4 0 0 0,0
19.01.2019 01:00:00 -2,8 -5,4 0 0 -
19.01.2019 00:00:00 -2,7 -5,1 0 0 0,0
18.01.2019 23:00:00 -2,7 -5,1 0 0 0,0
18.01.2019 22:00:00 -2,8 -5,4 0 0 0,0
18.01.2019 21:00:00 -2,8 -5,4 0 0 0,0
18.01.2019 20:00:00 -2,9 -5,4 0 0 0,0
18.01.2019 19:00:00 -2,5 -5,1 0 0 -
18.01.2019 18:00:00 -2,1 -5,4 0 0 0,0
18.01.2019 17:00:00 -2,1 -7,8 0 0 0,0
18.01.2019 16:00:00 -2,2 -6,7 0 0 0,0
18.01.2019 15:00:00 -1,8 -4,5 0 0 0,0
18.01.2019 14:00:00 -1,6 -3,9 0 0 0,0
18.01.2019 13:00:00 -2,4 -4,8 0 0 -
18.01.2019 12:00:00 -2,1 -4,8 0 0 0,0
18.01.2019 11:00:00 -3,0 -5,7 0 0 0,0
18.01.2019 10:00:00 -3,9 -6,7 0 0 0,0
18.01.2019 09:00:00 -4,6 -7,5 0 0 0,0
18.01.2019 08:00:00 -4,7 -7,5 0 0 0,0
18.01.2019 07:00:00 -5,4 -8,2 0 0 -
18.01.2019 06:00:00 -5,2 -7,8 0 0 0,0
18.01.2019 05:00:00 -4,8 -7,5 0 0 0,0
18.01.2019 04:00:00 -4,9 -7,8 0 0 0,0
18.01.2019 03:00:00 -3,9 -6,4 0 0 0,0
18.01.2019 02:00:00 -3,5 -6,0 0 0 0,0
18.01.2019 01:00:00 -3,3 -5,7 0 0 -
18.01.2019 00:00:00 -3,2 -5,7 0 0 0,0
17.01.2019 23:00:00 -2,5 -4,8 0 0 0,0
17.01.2019 22:00:00 -2,4 -4,8 0 0 0,0
17.01.2019 21:00:00 -2,2 -4,5 0 0 0,0
17.01.2019 20:00:00 -1,9 -4,2 0 0 0,0
17.01.2019 19:00:00 -2,3 -4,8 0 0 -
17.01.2019 18:00:00 -1,5 -3,9 0 0 0,0
17.01.2019 17:00:00 -0,9 -3,3 0 0 0,0
17.01.2019 16:00:00 -0,8 -3,3 0 0 0,0
17.01.2019 15:00:00 -0,9 -3,3 0 0 0,0
17.01.2019 14:00:00 -0,9 -3,3 0 0 0,0
17.01.2019 13:00:00 -1,1 -3,6 0 0 -
17.01.2019 12:00:00 -1,2 -3,6 0 0 0,0
17.01.2019 11:00:00 -1,3 -3,6 0 0 0,0
17.01.2019 10:00:00 -1,0 -3,3 0 0 0,0
17.01.2019 09:00:00 -0,9 -3,3 - - 0,0
17.01.2019 08:00:00 -0,9 -3,3 - - 0,0
17.01.2019 07:00:00 -0,8 -3,3 - - -
17.01.2019 06:00:00 -0,7 -3,0 - - 0,0
17.01.2019 05:00:00 -0,9 -3,3 - - 0,0
17.01.2019 04:00:00 -0,7 -3,0 - - 0,0
17.01.2019 03:00:00 -0,8 -3,3 - - 0,0
17.01.2019 02:00:00 -1,2 -4,2 - - 0,0
17.01.2019 01:00:00 -1,1 -4,8 - - -
17.01.2019 00:00:00 -0,9 -3,6 - - 0,0
16.01.2019 23:00:00 -0,5 -2,7 - - 0,0
16.01.2019 22:00:00 -0,3 -2,5 - - 0,0
16.01.2019 21:00:00 -0,4 -2,7 - - 0,0
16.01.2019 20:00:00 -0,5 -2,7 - - 0,0
16.01.2019 19:00:00 -0,1 -2,2 - - -
16.01.2019 18:00:00 1,0 -2,0 - - 0,0
16.01.2019 17:00:00 2,2 -2,2 - - 0,0
16.01.2019 16:00:00 5,0 -4,5 - - 0,0
16.01.2019 15:00:00 5,1 -3,9 - - 0,0
16.01.2019 14:00:00 5,8 -4,2 - - 0,0
16.01.2019 13:00:00 4,4 -4,8 - - -
16.01.2019 12:00:00 5,4 -5,1 - - 0,0
16.01.2019 11:00:00 3,2 -6,4 - - 0,0
16.01.2019 10:00:00 1,0 -7,8 - - 0,0
16.01.2019 09:00:00 0,4 -8,6 - - 0,0
16.01.2019 08:00:00 1,0 -6,7 - - 0,0
16.01.2019 07:00:00 1,6 -5,7 - - -
16.01.2019 06:00:00 2,2 -6,4 - - 0,0
16.01.2019 05:00:00 2,5 -6,0 - - 0,0
16.01.2019 04:00:00 2,3 -6,4 - - 0,0
16.01.2019 03:00:00 2,3 -6,0 - - 0,0
16.01.2019 02:00:00 1,8 -6,4 - - 0,0
16.01.2019 01:00:00 2,2 -6,7 - - -
16.01.2019 00:00:00 2,2 -7,1 - - 0,0
15.01.2019 23:00:00 2,5 -6,7 - - 0,0
15.01.2019 22:00:00 2,7 -7,1 - - 0,0
15.01.2019 21:00:00 2,2 -6,7 - - 0,0
15.01.2019 20:00:00 2,9 -7,5 - - 0,0
15.01.2019 19:00:00 2,9 -7,1 - - -
15.01.2019 18:00:00 4,3 -7,1 - - 0,0
15.01.2019 17:00:00 6,0 -7,1 - - 0,0

tt = Température de l'air
td = dewpoint
ff = Vitesse du vent
rr = Quantités de précipitations

stations d'obs. à proximité